Terminal Aerodrome Forecast
Issued by NWS Topeka, KS

Home | Current Version | Previous Version | Text Only | Print | Product List | Glossary Off
Versions: 1 2 3 4 5 6 7 8 9 10 11 12 13 14 15

000
FTUS43 KTOP 202200 AAB
TAFTOP
TAF AMD
KTOP 202214Z 2022/2118 23008KT P6SM VCTS BKN040CB
      TEMPO 2022/2023 VRB10KT 6SM -TSRA
     FM210000 32006KT P6SM FEW050=

USA.gov is the U.S. government's official web portal to all federal, state and local government web resources and services.